KFDR/FDR METAR and TAF weather

Enter ICAO airport designator
Station Type Date Time Source
KFDR METAR 2018/12/19 09:53 UTC NOAA

KFDR 190953Z AUTO 09008KT 5SM BR OVC080 05/04 A2984 RMK AO2 SLP100 T00500039


Station Type Date Time Source
KFDR Decoded METAR 2018/12/19 09:53 UTC NOAA

FREDERICK MUNICIPAL AIRPORT, OK, United States (KFDR) 34-21N 98-59W 377M
Dec 19, 2018 - 04:53 AM EST / 2018.12.19 0953 UTC
Wind: from the E (090 degrees) at 9 MPH (8 KT):0
Visibility: 5 mile(s):0
Sky conditions: overcast
Weather: mist
Temperature: 41.0 F (5.0 C)
Dew Point: 39.0 F (3.9 C)
Relative Humidity: 92%
Pressure (altimeter): 29.84 in. Hg (1010 hPa)
ob: KFDR 190953Z AUTO 09008KT 5SM BR OVC080 05/04 A2984 RMK AO2 SLP100 T00500039
cycle: 10

Station Type Date Time Source
KFDR TAF UTC NOAA

Error!


Example: see airport list